sensor_id;sensor_type;location;lat;lon;timestamp;pressure;altitude;pressure_sealevel;temperature;humidity
45713;BME280;44920;52.792;18.264;2023-04-10T14:46:13;101209.54;;;23.30;28.11
45713;BME280;44920;52.792;18.264;2023-04-10T14:48:41;101207.36;;;22.81;27.77
45713;BME280;44920;52.792;18.264;2023-04-10T14:51:08;101205.11;;;22.02;28.06
45713;BME280;44920;52.792;18.264;2023-04-10T14:53:39;101202.39;;;21.30;28.46
45713;BME280;44920;52.792;18.264;2023-04-10T14:56:14;101202.40;;;20.66;29.10
45713;BME280;44920;52.792;18.264;2023-04-10T14:58:41;101203.13;;;20.03;29.88
45713;BME280;44920;52.792;18.264;2023-04-10T15:01:10;101199.26;;;19.56;30.46
45713;BME280;44920;52.792;18.264;2023-04-10T15:03:38;101192.58;;;19.15;30.69
45713;BME280;44920;52.792;18.264;2023-04-10T15:06:05;101187.40;;;18.85;31.09
45713;BME280;44920;52.792;18.264;2023-04-10T15:08:32;101182.63;;;18.69;31.25
45713;BME280;44920;52.792;18.264;2023-04-10T15:10:59;101178.44;;;18.63;31.41
45713;BME280;44920;52.792;18.264;2023-04-10T15:13:27;101173.81;;;18.57;31.61
45713;BME280;44920;52.792;18.264;2023-04-10T15:15:54;101173.30;;;18.51;31.79
45713;BME280;44920;52.792;18.264;2023-04-10T15:18:22;101174.05;;;18.37;32.25
45713;BME280;44920;52.792;18.264;2023-04-10T15:20:51;101172.54;;;18.18;32.31
45713;BME280;44920;52.792;18.264;2023-04-10T15:23:18;101169.14;;;18.12;32.69
45713;BME280;44920;52.792;18.264;2023-04-10T15:25:45;101162.35;;;18.01;32.58
45713;BME280;44920;52.792;18.264;2023-04-10T15:28:12;101164.21;;;17.86;33.03
45713;BME280;44920;52.792;18.264;2023-04-10T15:30:42;101157.39;;;17.72;33.13
45713;BME280;44920;52.792;18.264;2023-04-10T15:33:09;101161.52;;;17.60;33.40
45713;BME280;44920;52.792;18.264;2023-04-10T15:35:36;101161.02;;;17.58;33.66
45713;BME280;44920;52.792;18.264;2023-04-10T15:38:04;101154.41;;;17.50;33.82
45713;BME280;44920;52.792;18.264;2023-04-10T15:40:32;101151.42;;;17.36;34.13
45713;BME280;44920;52.792;18.264;2023-04-10T15:42:59;101148.98;;;17.32;34.14
45713;BME280;44920;52.792;18.264;2023-04-10T15:45:26;101142.14;;;17.29;34.16
45713;BME280;44920;52.792;18.264;2023-04-10T15:47:53;101141.43;;;17.29;34.55
45713;BME280;44920;52.792;18.264;2023-04-10T15:50:20;101140.48;;;17.20;34.73
45713;BME280;44920;52.792;18.264;2023-04-10T15:52:47;101137.53;;;17.12;35.14
45713;BME280;44920;52.792;18.264;2023-04-10T15:55:14;101135.78;;;17.06;35.28
45713;BME280;44920;52.792;18.264;2023-04-10T15:57:41;101132.86;;;16.98;35.36
45713;BME280;44920;52.792;18.264;2023-04-10T16:00:09;101130.29;;;16.90;36.36
45713;BME280;44920;52.792;18.264;2023-04-10T16:02:36;101127.33;;;16.81;36.53
45713;BME280;44920;52.792;18.264;2023-04-10T16:05:05;101127.96;;;16.73;36.35
45713;BME280;44920;52.792;18.264;2023-04-10T16:07:34;101121.51;;;16.68;36.36
45713;BME280;44920;52.792;18.264;2023-04-10T16:10:05;101120.61;;;16.64;36.45
45713;BME280;44920;52.792;18.264;2023-04-10T16:12:36;101117.50;;;16.61;36.62
45713;BME280;44920;52.792;18.264;2023-04-10T16:15:05;101112.88;;;16.56;36.66
45713;BME280;44920;52.792;18.264;2023-04-10T16:17:33;101111.78;;;16.51;37.07
45713;BME280;44920;52.792;18.264;2023-04-10T16:20:05;101104.65;;;16.42;37.66
45713;BME280;44920;52.792;18.264;2023-04-10T16:22:32;101101.10;;;16.32;37.46
45713;BME280;44920;52.792;18.264;2023-04-10T16:24:59;101097.86;;;16.28;37.49
45713;BME280;44920;52.792;18.264;2023-04-10T16:27:26;101097.50;;;16.24;37.65
45713;BME280;44920;52.792;18.264;2023-04-10T16:29:53;101095.86;;;16.20;37.90
45713;BME280;44920;52.792;18.264;2023-04-10T16:32:20;101092.19;;;16.15;38.07
45713;BME280;44920;52.792;18.264;2023-04-10T16:34:47;101090.70;;;16.09;38.35
45713;BME280;44920;52.792;18.264;2023-04-10T16:37:14;101090.89;;;16.00;38.53
45713;BME280;44920;52.792;18.264;2023-04-10T16:39:41;101085.49;;;15.90;38.67
45713;BME280;44920;52.792;18.264;2023-04-10T16:42:08;101083.29;;;15.81;38.80
45713;BME280;44920;52.792;18.264;2023-04-10T16:44:36;101080.02;;;15.74;39.22
45713;BME280;44920;52.792;18.264;2023-04-10T16:47:03;101077.59;;;15.66;39.33
45713;BME280;44920;52.792;18.264;2023-04-10T16:49:30;101078.13;;;15.58;39.52
45713;BME280;44920;52.792;18.264;2023-04-10T16:51:57;101071.98;;;15.49;39.92
45713;BME280;44920;52.792;18.264;2023-04-10T16:54:24;101074.88;;;15.39;39.91
